Terminal Aerodrome Forecast
Issued by NWS Bismarck, ND

Home | Current Version | Previous Version | Graphics & Text | Print | Product List | Glossary On
Versions: 1 2 3 4 5 6 7 8 9 10 11 12 13 14 15 16 17
000
FTUS43 KBIS 180535
TAFISN
TAF
KISN 180535Z 1806/1906 25015G19KT P6SM SCT250 WS020/28055KT
      TEMPO 1806/1807 28024G35KT
     FM180700 29026G34KT P6SM FEW050 SCT200 WS020/29045KT
     FM181000 29017G25KT P6SM FEW050 SCT250 WS020/29035KT
     FM181300 28013KT P6SM FEW250 WS020/29035KT
     FM181600 28016G23KT P6SM FEW130 FEW250
     FM182300 26008KT P6SM FEW100 FEW250=

USA.gov is the U.S. government's official web portal to all federal, state and local government web resources and services.